Flight Track Log - Related Links

Times and Time Zones

All times are in EDT time to prevent confusion due to time zone crossing. See the EGF4086 flight status page for this flight to view local times or setup timezone preferences in your user account.

Time Position Orientation Groundspeed Altitude Reporting Facility
EDT Latitude Longitude Course Direction KTS MPH feet Rate Location/Type
Fri 04:48:53 PM 43.0975 -77.6972 281° West 156 180 1,600  Level Cleveland Center
Fri 04:49:23 PM 43.0789 -77.7094 206° Southwest 158 182 2,600 1,929 Climbing Cleveland Center
Fri 04:50:45 PM 43.0344 -77.7628 221° Southwest 183 211 5,200 2,070 Climbing Cleveland Center
Fri 04:51:00 PM 43.1491 -78.0092 280° West  Level FlightAware Approximate
Fri 04:51:45 PM 43.0236 -77.8369 259° West 178 205 7,500  Level Cleveland Center
Fri 04:52:00 PM 43.1591 -78.1244 278° West  Level FlightAware Approximate
Fri 04:52:45 PM 43.0111 -77.9172 258° West 200 230 9,400  Level Cleveland Center
Fri 04:53:00 PM 43.1723 -78.2390 281° West  Level FlightAware Approximate
Fri 04:53:45 PM 42.9964 -78.0114 258° West 231 266 10,600  Level Cleveland Center
Fri 04:54:00 PM 43.1886 -78.3530 281° West  Level FlightAware Approximate
Fri 04:54:45 PM 42.9989 -78.1219 272° West 271 312 12,100  Level Cleveland Center
Fri 04:55:45 PM 43.0033 -78.2383 273° West 296 341 13,800 1,600 Climbing Cleveland Center
Fri 04:56:45 PM 43.0056 -78.3544 272° West 306 352 15,300 1,500 Climbing Cleveland Center
Fri 04:57:45 PM 43.0100 -78.4736 273° West 311 358 16,800 2,100 Climbing Cleveland Center
Fri 04:58:45 PM 43.0119 -78.5872 271° West 311 358 19,500 2,550 Climbing Cleveland Center
Fri 04:59:45 PM 43.0139 -78.6950 271° West 295 339 21,900 2,100 Climbing Cleveland Center
Fri 05:00:45 PM 43.0175 -78.7944 273° West 273 314 23,700 1,450 Climbing Cleveland Center
Fri 05:01:45 PM 43.0169 -78.8994 270° West 273 314 24,800 1,143 Climbing Cleveland Center
Fri 05:02:09 PM 43.0167 -78.9333 269° West 280 322 25,300 1,143 Climbing Toronto Center
Fri 05:03:09 PM 43.0167 -79.0333 270° West 300 345 26,400 1,100 Climbing Toronto Center
Fri 05:04:09 PM 43.0167 -79.1833 270° West 310 357 27,500 1,050 Climbing Toronto Center
Fri 05:05:09 PM 43.0167 -79.2833 270° West 310 357 28,500 1,050 Climbing Toronto Center
Fri 05:06:09 PM 43.0167 -79.4000 270° West 310 357 29,600 1,050 Climbing Toronto Center
Fri 05:07:09 PM 43.0167 -79.5167 270° West 320 368 30,600 1,000 Climbing Toronto Center
Fri 05:08:09 PM 43.0167 -79.6500 270° West 320 368 31,600 700 Climbing Toronto Center
Fri 05:09:09 PM 43.0167 -79.7667 270° West 320 368 32,000 200 Climbing Toronto Center
Fri 05:10:09 PM 43.0167 -79.9000 270° West 350 403 32,000  Level Toronto Center
Fri 05:11:09 PM 43.0167 -80.0500 270° West 370 426 32,000  Level Toronto Center
Fri 05:12:09 PM 43.0333 -80.1833 280° West 370 426 32,000  Level Toronto Center
Fri 05:13:09 PM 43.0333 -80.3333 270° West 380 437 32,000  Level Toronto Center
Fri 05:14:09 PM 43.0333 -80.4833 270° West 380 437 32,000  Level Toronto Center
Fri 05:15:09 PM 43.0333 -80.6167 270° West 380 437 32,000  Level Toronto Center
Fri 05:16:09 PM 43.0333 -80.7667 270° West 390 449 32,000  Level Toronto Center
Fri 05:17:09 PM 43.0167 -80.9167 261° West 390 449 32,000  Level Toronto Center
Fri 05:18:09 PM 43.0167 -81.0500 270° West 390 449 32,000  Level Toronto Center
Fri 05:19:09 PM 43.0167 -81.2000 270° West 390 449 32,000  Level Toronto Center
Fri 05:20:09 PM 43.0167 -81.3667 270° West 390 449 32,000  Level Toronto Center
Fri 05:21:09 PM 43.0167 -81.5000 270° West 390 449 32,000  Level Toronto Center
Fri 05:22:09 PM 43.0167 -81.6667 270° West 390 449 32,000  Level Toronto Center
Fri 05:23:09 PM 43.0167 -81.8000 270° West 390 449 32,000  Level Toronto Center
Fri 05:24:09 PM 43.0000 -81.9667 262° West 390 449 32,000  Level Toronto Center
Fri 05:25:09 PM 43.0000 -82.1000 270° West 400 460 32,000  Level Toronto Center
Fri 05:26:09 PM 43.0000 -82.2500 270° West 400 460 32,000  Level Toronto Center
Fri 05:27:09 PM 43.0000 -82.4167 270° West 400 460 32,000  Level Toronto Center
Fri 05:28:09 PM 43.0000 -82.5667 270° West 400 460 32,000  Level Toronto Center
Fri 05:28:57 PM 43.0019 -82.6753 271° West 403 464 32,000  Level Cleveland Center
Fri 05:29:57 PM 42.9989 -82.8286 268° West 403 464 32,000  Level Cleveland Center
Fri 05:30:57 PM 42.9939 -82.9817 267° West 403 464 32,000  Level Cleveland Center
Fri 05:31:57 PM 42.9886 -83.1292 267° West 403 464 32,000  Level Cleveland Center
Fri 05:32:57 PM 42.9831 -83.2822 267° West 403 464 32,000  Level Cleveland Center
Fri 05:33:57 PM 42.9772 -83.4381 267° West 403 464 32,000  Level Cleveland Center
Fri 05:34:57 PM 42.9711 -83.5939 267° West 408 470 32,000  Level Cleveland Center
Fri 05:35:57 PM 42.9672 -83.7411 268° West 408 470 32,000  Level Cleveland Center
Fri 05:36:57 PM 42.9500 -83.9078 262° West 408 470 32,000  Level Cleveland Center
Fri 05:37:57 PM 42.9378 -84.0433 263° West 401 461 32,000  Level Cleveland Center
Fri 05:39:28 PM 42.9136 -84.2864 262° West 399 459 32,000  Level Chicago Center
Fri 05:40:30 PM 42.8992 -84.4361 263° West 398 458 32,000  Level Chicago Center
Fri 05:41:33 PM 42.8839 -84.5867 262° West 401 461 32,000  Level Chicago Center
Fri 05:42:35 PM 42.8683 -84.7381 262° West 404 465 32,000  Level Chicago Center
Fri 05:43:37 PM 42.8522 -84.8911 262° West 407 468 32,000  Level Chicago Center
Fri 05:44:39 PM 42.8367 -85.0417 262° West 404 465 32,000  Level Chicago Center
Fri 05:45:41 PM 42.8164 -85.2250 261° West 406 467 32,000  Level Chicago Center
Fri 05:46:43 PM 42.7992 -85.3789 261° West 409 471 32,000 -532 Level Chicago Center
Fri 05:47:45 PM 42.7825 -85.5269 261° West 398 458 30,900 -1,645 Descending Chicago Center
Fri 05:48:47 PM 42.7567 -85.6719 256° West 394 453 28,600 -2,226 Descending Chicago Center
Fri 05:49:49 PM 42.7283 -85.8197 255° West 400 460 26,300 -2,177 Descending Chicago Center
Fri 05:50:51 PM 42.7022 -85.9678 257° West 400 460 24,100 -2,177 Descending Chicago Center
Fri 05:51:53 PM 42.6764 -86.1108 256° West 390 449 21,800 -1,968 Descending Chicago Center
Fri 05:52:56 PM 42.6458 -86.2742 256° West 373 429 20,000 -864 Descending Chicago Center
Fri 05:53:58 PM 42.6194 -86.4097 255° West 371 427 20,000 -194 Level Chicago Center
Fri 05:55:00 PM 42.5939 -86.5481 256° West 377 434 19,600 -1,694 Descending Chicago Center
Fri 05:56:02 PM 42.5686 -86.6806 256° West 367 422 16,500 -2,903 Descending Chicago Center
Fri 05:57:04 PM 42.5403 -86.8058 253° West 352 405 13,600 -2,419 Descending Chicago Center
Fri 05:58:06 PM 42.5075 -86.9256 250° West 340 391 11,500 -1,694 Descending Chicago Center
Fri 05:59:08 PM 42.4756 -87.0411 249° West 331 381 10,100 -871 Descending Chicago Center
Fri 06:00:10 PM 42.4389 -87.1639 248° West 287 330 9,700 -524 Descending Chicago Center
Fri 06:01:14 PM 42.3886 -87.2147 217° Southwest 268 308 9,000 -333 Descending Chicago Center
Fri 06:02:16 PM 42.3042 -87.2167 181° South 277 319 9,000 -387 Level Chicago Center
Fri 06:03:18 PM 42.2272 -87.2192 181° South 277 319 8,200 -864 Descending Chicago Center
Fri 06:04:21 PM 42.1517 -87.2231 182° South 273 314 7,200 -576 Descending Chicago Center
Fri 06:05:23 PM 42.0800 -87.2419 191° South 264 304 7,000 -97 Descending Chicago Center
Fri 06:06:25 PM 42.0206 -87.2842 208° Southwest 261 300 7,000  Level Chicago Center
Fri 06:07:27 PM 41.9881 -87.3803 246° West 244 281 7,000  Level Chicago Center
Fri 06:07:46 PM 41.9833 -87.4000 252° West 216 249 7,000 -70 Level Chicago TRACON
Fri 06:08:53 PM 41.9833 -87.4833 270° West 175 201 6,900 -446 Descending Chicago TRACON
Fri 06:09:47 PM 41.9833 -87.5333 270° West 172 198 6,100 -947 Descending Chicago TRACON
Fri 06:10:47 PM 41.9833 -87.6000 270° West 162 186 5,100 -1,000 Descending Chicago TRACON
Fri 06:11:47 PM 41.9833 -87.6667 270° West 175 201 4,100 -1,000 Descending Chicago TRACON

Login

Don't have an account? Register now (free) for customized features, flight alerts, and more!